Time;durP1;ratioP1;P1;durP2;ratioP2;P2;SDS_P1;SDS_P2;PMS_P1;PMS_P2;Temp;Humidity;BMP_temperature;BMP_pressure;BME280_temperature;BME280_humidity;BME280_pressure;Samples;Min_cycle;Max_cycle;Signal;HPM_P1;HPM_P2
2021/06/20 00:01:33;;;;;;;10.70;9.17;;;;;;;-144.99;76.81;52158.66;5092597;28;20211;-75
2021/06/20 00:03:59;;;;;;;11.03;9.90;;;;;;;-144.99;76.82;52138.28;5093425;28;20632;-75
2021/06/20 00:06:31;;;;;;;13.23;9.67;;;;;;;-144.99;76.65;52142.38;5092033;28;20268;-75
2021/06/20 00:08:58;;;;;;;10.50;9.50;;;;;;;-144.99;76.75;52146.44;5092263;28;20238;-77
2021/06/20 00:11:26;;;;;;;9.93;9.00;;;;;;;-144.99;76.82;52207.59;5092358;28;20301;-75
2021/06/20 00:13:53;;;;;;;10.90;9.83;;;;;;;-144.99;76.98;52201.47;5093082;28;20214;-75
2021/06/20 00:16:20;;;;;;;11.30;10.17;;;;;;;-144.99;77.04;52166.81;5094204;28;20267;-75
2021/06/20 00:18:49;;;;;;;10.70;8.87;;;;;;;-144.99;77.21;52179.06;5094970;28;20286;-74
2021/06/20 00:21:16;;;;;;;12.47;11.17;;;;;;;-144.99;77.10;52146.44;5085467;28;20628;-74
2021/06/20 00:23:43;;;;;;;12.03;9.93;;;;;;;-144.99;77.44;52154.59;5082282;28;20211;-75
2021/06/20 00:26:09;;;;;;;9.33;8.43;;;;;;;-144.99;77.31;52154.59;5092154;28;20235;-74
2021/06/20 00:28:36;;;;;;;11.57;8.43;;;;;;;-144.99;77.39;52134.22;5091599;28;20313;-73
2021/06/20 00:31:03;;;;;;;10.23;9.23;;;;;;;-144.99;77.54;52168.84;5091327;28;20250;-74
2021/06/20 00:33:30;;;;;;;11.27;9.57;;;;;;;-144.99;77.71;52146.44;5091781;28;20257;-74
2021/06/20 00:35:59;;;;;;;10.60;9.60;;;;;;;-144.99;77.72;52174.97;5090549;28;20268;-75
2021/06/20 00:38:26;;;;;;;11.77;9.40;;;;;;;-144.99;78.00;52174.97;5092519;28;20227;-74
2021/06/20 00:40:53;;;;;;;11.33;9.43;;;;;;;-144.99;77.96;52166.81;5091039;28;20325;-75
2021/06/20 00:43:20;;;;;;;11.53;9.83;;;;;;;-144.99;78.22;52203.50;5091188;28;20238;-75
2021/06/20 00:45:47;;;;;;;13.40;9.27;;;;;;;-144.99;78.46;52154.59;5091669;28;20210;-75
2021/06/20 00:48:14;;;;;;;14.27;10.07;;;;;;;-144.99;78.60;52158.66;5090771;28;20231;-74
2021/06/20 00:50:40;;;;;;;17.47;10.73;;;;;;;-144.99;79.01;52172.94;5091544;28;20324;-74
2021/06/20 00:53:09;;;;;;;10.30;9.23;;;;;;;-144.99;78.82;52187.19;5084055;28;20272;-75
2021/06/20 00:55:39;;;;;;;12.07;10.50;;;;;;;-144.99;79.03;52138.28;5076925;28;20208;-74
2021/06/20 00:58:08;;;;;;;13.67;10.40;;;;;;;-144.99;79.55;52179.06;5090921;28;20234;-74
2021/06/20 01:00:36;;;;;;;11.90;10.70;;;;;;;-144.99;79.72;52172.94;5090090;28;20230;-73
2021/06/20 01:03:04;;;;;;;15.93;10.80;;;;;;;-144.99;79.95;52179.06;5090716;28;20277;-73
2021/06/20 01:05:31;;;;;;;11.70;10.53;;;;;;;-144.99;80.22;52170.91;5090487;28;20241;-72
2021/06/20 01:07:58;;;;;;;13.70;11.57;;;;;;;-144.99;80.31;52158.66;5090481;28;20369;-72
2021/06/20 01:10:29;;;;;;;14.57;11.33;;;;;;;-144.99;80.40;52126.06;5089850;28;20318;-73
2021/06/20 01:12:57;;;;;;;10.53;9.43;;;;;;;-144.99;80.70;52166.81;5089561;28;20243;-72
2021/06/20 01:15:24;;;;;;;14.27;11.80;;;;;;;-144.99;80.70;52158.66;5090201;28;20235;-72
2021/06/20 01:17:51;;;;;;;13.57;10.63;;;;;;;-144.99;81.01;52154.59;5090191;28;20251;-75
2021/06/20 01:20:20;;;;;;;13.43;11.87;;;;;;;-144.99;81.07;52140.31;5088849;28;20276;-73
2021/06/20 01:22:50;;;;;;;14.13;12.67;;;;;;;-144.99;81.17;52166.81;5074358;28;20576;-74
2021/06/20 01:25:21;;;;;;;14.40;12.30;;;;;;;-144.99;81.28;52168.84;5090458;28;20297;-74
2021/06/20 01:27:52;;;;;;;11.40;10.30;;;;;;;-144.99;81.42;52162.75;5090439;28;20707;-72
2021/06/20 01:30:22;;;;;;;12.97;11.57;;;;;;;-144.99;81.56;52142.38;5089936;28;20230;-75
2021/06/20 01:32:50;;;;;;;12.60;11.30;;;;;;;-144.99;81.48;52203.50;5089822;28;20660;-74
2021/06/20 01:35:17;;;;;;;14.00;12.70;;;;;;;-144.99;81.77;52179.06;5089739;28;20283;-73
2021/06/20 01:37:45;;;;;;;15.27;13.77;;;;;;;-144.99;82.85;52166.81;5089803;28;20234;-74
2021/06/20 01:40:16;;;;;;;14.90;12.73;;;;;;;-144.99;82.58;52158.66;5089629;28;20237;-74
2021/06/20 01:42:43;;;;;;;16.23;14.57;;;;;;;-144.99;83.28;52189.25;5090599;28;20218;-74
2021/06/20 01:45:12;;;;;;;30.70;15.23;;;;;;;-144.99;83.49;52166.81;5090699;28;20226;-74
2021/06/20 01:47:39;;;;;;;14.30;12.70;;;;;;;-144.99;84.06;52154.59;5090819;28;20211;-71
2021/06/20 01:50:09;;;;;;;14.83;13.10;;;;;;;-144.99;84.31;52197.41;5089037;28;20317;-72
2021/06/20 01:52:36;;;;;;;14.33;12.90;;;;;;;-144.99;84.84;52191.28;5086787;28;20231;-74
2021/06/20 01:55:04;;;;;;;12.87;11.43;;;;;;;-144.99;85.25;52158.66;5074055;28;20552;-72
2021/06/20 01:57:34;;;;;;;15.40;13.20;;;;;;;-144.99;85.44;52162.75;5088341;28;20663;-73
2021/06/20 02:00:04;;;;;;;16.93;13.50;;;;;;;-144.99;85.52;52160.72;5090092;28;20277;-76
2021/06/20 02:02:31;;;;;;;16.67;13.87;;;;;;;-144.99;85.58;52162.75;5090018;28;20370;-75
2021/06/20 02:04:58;;;;;;;18.57;14.80;;;;;;;-144.99;85.59;52162.75;5089447;28;20218;-75
2021/06/20 02:07:25;;;;;;;13.43;12.07;;;;;;;-144.99;85.67;52154.59;5090232;28;20212;-76
2021/06/20 02:09:53;;;;;;;15.40;13.23;;;;;;;-144.99;85.95;52138.28;5089230;28;20765;-74
2021/06/20 02:12:22;;;;;;;15.80;14.00;;;;;;;-144.99;86.42;52162.75;5089884;28;20235;-77
2021/06/20 02:14:50;;;;;;;15.73;14.03;;;;;;;-144.99;86.42;52191.28;5089708;28;20305;-74
2021/06/20 02:17:23;;;;;;;15.83;12.70;;;;;;;-144.99;86.60;52097.53;5089413;28;20235;-74
2021/06/20 02:19:50;;;;;;;16.47;13.10;;;;;;;-144.99;87.06;52166.81;5089013;28;20233;-74
2021/06/20 02:22:17;;;;;;;18.23;16.27;;;;;;;-144.99;86.95;52166.81;5072938;28;20661;-75
2021/06/20 02:24:44;;;;;;;16.90;14.50;;;;;;;-144.99;87.66;52154.59;5089664;28;20582;-76
2021/06/20 02:27:12;;;;;;;14.87;13.30;;;;;;;-144.99;87.62;52166.81;5093367;28;20758;-76
2021/06/20 02:29:40;;;;;;;18.73;15.87;;;;;;;-144.99;88.28;52146.44;5092720;28;20816;-75
2021/06/20 02:32:08;;;;;;;17.53;15.83;;;;;;;-144.99;88.01;52193.31;5093738;28;20314;-75
2021/06/20 02:34:35;;;;;;;19.63;17.27;;;;;;;-144.99;88.18;52130.13;5092617;28;20427;-74
2021/06/20 02:37:02;;;;;;;18.10;15.13;;;;;;;-144.99;87.90;52164.78;5093142;28;20228;-74
2021/06/20 02:39:29;;;;;;;17.20;14.43;;;;;;;-144.99;87.77;52156.63;5092722;28;20693;-74
2021/06/20 02:41:55;;;;;;;19.50;17.50;;;;;;;-144.99;87.65;52158.66;5093397;28;20338;-73
2021/06/20 02:44:22;;;;;;;21.00;18.23;;;;;;;-144.99;87.83;52138.28;5093195;28;20396;-73
2021/06/20 02:46:49;;;;;;;19.40;17.40;;;;;;;-144.99;87.86;52132.19;5094580;28;20280;-72
2021/06/20 02:49:17;;;;;;;19.80;17.07;;;;;;;-144.99;88.17;52179.06;5091946;28;20319;-73
2021/06/20 02:51:44;;;;;;;15.47;13.73;;;;;;;-144.99;87.88;52195.34;5090656;28;20301;-74
2021/06/20 02:54:11;;;;;;;20.47;16.43;;;;;;;-144.99;88.77;52158.66;5077530;28;20201;-74
2021/06/20 02:56:38;;;;;;;21.73;17.33;;;;;;;-144.99;89.10;52170.91;5092614;28;20211;-73
2021/06/20 02:59:05;;;;;;;18.30;16.40;;;;;;;-144.99;89.18;52166.81;5099481;28;20248;-73
2021/06/20 03:01:32;;;;;;;17.27;14.20;;;;;;;-144.99;89.23;52146.44;5094067;28;20287;-72
2021/06/20 03:03:59;;;;;;;16.87;15.10;;;;;;;-144.99;89.62;52162.75;5093053;28;20294;-73
2021/06/20 03:06:27;;;;;;;23.67;19.90;;;;;;;-144.99;89.65;52168.84;5093068;28;20293;-75
2021/06/20 03:08:54;;;;;;;19.03;17.23;;;;;;;-144.99;89.83;52138.28;5093165;28;20753;-71
2021/06/20 03:11:21;;;;;;;20.00;17.27;;;;;;;-144.99;89.72;52170.91;5092538;28;20353;-73
2021/06/20 03:13:48;;;;;;;18.13;16.27;;;;;;;-144.99;89.87;52142.38;5093307;28;20212;-74
2021/06/20 03:16:17;;;;;;;22.00;15.63;;;;;;;-144.99;89.55;52146.44;5092564;28;20285;-74
2021/06/20 03:18:45;;;;;;;18.73;16.80;;;;;;;-144.99;89.99;52172.94;5081322;28;20236;-73
2021/06/20 03:21:12;;;;;;;17.77;15.97;;;;;;;-144.99;89.78;52183.13;5088998;28;20313;-73
2021/06/20 03:23:40;;;;;;;26.73;19.70;;;;;;;-144.99;90.21;52162.75;5082900;28;20259;-74
2021/06/20 03:26:08;;;;;;;25.50;21.33;;;;;;;-144.99;90.04;52146.44;5087105;28;20218;-74
2021/06/20 03:28:34;;;;;;;17.40;15.27;;;;;;;-144.99;90.06;52160.72;5092292;28;20218;-74
2021/06/20 03:31:03;;;;;;;31.90;21.53;;;;;;;-144.99;90.27;52142.38;5091582;28;20503;-73
2021/06/20 03:33:31;;;;;;;41.77;25.77;;;;;;;-144.99;90.88;52130.13;5092135;28;20241;-74
2021/06/20 03:35:58;;;;;;;20.47;17.67;;;;;;;-144.99;90.55;52146.44;5089665;28;20238;-74
2021/06/20 03:38:25;;;;;;;21.27;16.70;;;;;;;-144.99;90.17;52166.81;5091903;28;20266;-75
2021/06/20 03:40:54;;;;;;;25.50;20.30;;;;;;;-144.99;90.20;52170.91;5091616;28;20236;-76
2021/06/20 03:43:21;;;;;;;28.87;20.23;;;;;;;-144.99;89.98;52158.66;5092908;28;20279;-76
2021/06/20 03:45:48;;;;;;;24.87;18.93;;;;;;;-144.99;90.06;52154.59;5092866;28;20240;-75
2021/06/20 03:48:15;;;;;;;20.73;18.07;;;;;;;-144.99;90.27;52154.59;5094089;28;20222;-76
2021/06/20 03:50:42;;;;;;;30.03;23.70;;;;;;;-144.99;90.21;52160.72;5093208;28;20224;-75
2021/06/20 03:53:11;;;;;;;21.10;18.37;;;;;;;-144.99;89.96;52172.94;5080459;28;20261;-75
2021/06/20 03:55:38;;;;;;;26.43;21.57;;;;;;;-144.99;90.67;52152.56;5078524;28;20673;-76
2021/06/20 03:58:07;;;;;;;27.13;23.20;;;;;;;-144.99;90.46;52166.81;5092108;28;20244;-78
2021/06/20 04:00:34;;;;;;;24.77;19.87;;;;;;;-144.99;90.03;52162.75;5091558;28;20314;-76
2021/06/20 04:03:01;;;;;;;26.63;20.23;;;;;;;-144.99;89.51;52138.28;5092340;28;20219;-77
2021/06/20 04:05:28;;;;;;;26.23;20.13;;;;;;;-144.99;89.49;52154.59;5091913;28;20207;-76
2021/06/20 04:07:55;;;;;;;26.17;19.03;;;;;;;-144.99;89.59;52154.59;5092409;28;20216;-76
2021/06/20 04:10:22;;;;;;;24.43;18.33;;;;;;;-144.99;89.66;52142.38;5091662;28;20270;-78
2021/06/20 04:12:49;;;;;;;22.70;18.33;;;;;;;-144.99;90.02;52177.00;5093328;28;20210;-78
2021/06/20 04:15:17;;;;;;;25.63;21.83;;;;;;;-144.99;89.82;52162.75;5092931;28;20208;-77
2021/06/20 04:17:44;;;;;;;19.30;16.17;;;;;;;-144.99;89.61;52146.44;5091179;28;20310;-77
2021/06/20 04:20:13;;;;;;;17.90;14.00;;;;;;;-144.99;90.44;52179.06;5087376;28;20307;-77
2021/06/20 04:22:41;;;;;;;23.07;16.90;;;;;;;-144.99;91.69;52152.56;5077209;28;20223;-80
2021/06/20 04:25:12;;;;;;;15.73;14.10;;;;;;;-144.99;94.81;52227.97;5093089;28;20202;-82
2021/06/20 04:27:39;;;;;;;21.83;14.10;;;;;;;-144.99;96.24;52183.13;5110453;28;20200;-80
2021/06/20 04:30:07;;;;;;;14.70;13.03;;;;;;;-144.99;96.60;52134.22;5111839;28;20238;-80
2021/06/20 04:32:35;;;;;;;15.03;13.47;;;;;;;-144.99;97.06;52138.28;5109732;28;20241;-81
2021/06/20 04:35:04;;;;;;;16.23;13.43;;;;;;;-144.99;97.86;52170.91;5107355;28;20211;-81
2021/06/20 04:37:30;;;;;;;15.93;14.27;;;;;;;-144.99;98.35;52142.38;5109582;28;20222;-81
2021/06/20 04:39:57;;;;;;;15.90;14.30;;;;;;;-144.99;99.05;52174.97;5107843;28;20260;-80
2021/06/20 04:42:32;;;;;;;14.87;12.60;;;;;;;-144.99;99.78;52166.81;5107271;28;20238;-81
2021/06/20 04:45:01;;;;;;;15.63;14.03;;;;;;;-144.99;100.00;52179.06;5094831;28;20236;-80
2021/06/20 04:47:29;;;;;;;14.33;12.87;;;;;;;-144.99;100.00;52162.75;5105496;28;20210;-82
2021/06/20 04:49:58;;;;;;;15.13;12.63;;;;;;;-144.99;100.00;52166.81;5104681;28;20246;-80
2021/06/20 04:52:25;;;;;;;17.10;14.40;;;;;;;-144.99;100.00;52146.44;5094080;28;20263;-78
2021/06/20 04:54:54;;;;;;;15.53;14.00;;;;;;;-144.99;100.00;52187.19;5076034;28;20264;-79
2021/06/20 04:57:23;;;;;;;19.10;15.83;;;;;;;-144.99;100.00;52187.19;5088717;28;20298;-77
2021/06/20 04:59:52;;;;;;;13.20;11.73;;;;;;;-144.99;100.00;52138.28;5095089;28;20254;-78
2021/06/20 05:02:22;;;;;;;18.00;12.73;;;;;;;-144.99;100.00;52130.13;5097115;28;20237;-78
2021/06/20 05:04:51;;;;;;;15.50;13.23;;;;;;;-144.99;100.00;52126.06;5095152;28;20685;-76
2021/06/20 05:07:20;;;;;;;15.23;13.47;;;;;;;-144.99;100.00;52126.06;5092964;28;20713;-78
2021/06/20 05:09:48;;;;;;;13.93;12.50;;;;;;;-144.99;100.00;52154.59;5093128;28;20247;-77
2021/06/20 05:12:15;;;;;;;14.37;12.97;;;;;;;-144.99;100.00;52179.06;5096566;28;20325;-76
2021/06/20 05:14:44;;;;;;;12.70;11.20;;;;;;;-144.99;100.00;52154.59;5094296;28;20646;-77
2021/06/20 05:17:11;;;;;;;14.23;10.17;;;;;;;-144.99;100.00;52181.09;5097405;28;20266;-77
2021/06/20 05:19:39;;;;;;;13.37;11.17;;;;;;;-144.99;100.00;52148.47;5099133;28;20242;-79
2021/06/20 05:22:06;;;;;;;12.87;9.90;;;;;;;-144.99;100.00;52146.44;5084019;28;20225;-79
2021/06/20 05:24:34;;;;;;;10.40;9.30;;;;;;;-144.99;100.00;52181.09;5102250;28;20294;-78
2021/06/20 05:27:01;;;;;;;13.10;10.50;;;;;;;-144.99;100.00;52164.78;5099228;28;20237;-78
2021/06/20 05:29:28;;;;;;;9.17;8.27;;;;;;;-144.99;100.00;52158.66;5099014;28;20466;-79
2021/06/20 05:31:55;;;;;;;9.93;8.07;;;;;;;-144.99;100.00;52211.66;5099491;28;20214;-78
2021/06/20 05:34:22;;;;;;;10.03;8.23;;;;;;;-144.99;100.00;52150.53;5097193;28;20464;-78
2021/06/20 05:36:48;;;;;;;14.10;7.83;;;;;;;-144.99;100.00;52154.59;5095815;28;20217;-78
2021/06/20 05:39:15;;;;;;;10.97;7.17;;;;;;;-144.99;100.00;52191.28;5101022;28;20283;-80
2021/06/20 05:41:43;;;;;;;11.70;6.87;;;;;;;-144.99;100.00;52154.59;5101736;28;20632;-78
2021/06/20 05:44:11;;;;;;;9.30;5.77;;;;;;;-144.99;100.00;52174.97;5099992;28;20202;-77
2021/06/20 05:46:38;;;;;;;12.20;6.60;;;;;;;-144.99;100.00;52191.28;5102825;28;20551;-79
2021/06/20 05:49:05;;;;;;;8.50;5.90;;;;;;;-144.99;100.00;52179.06;5100468;28;20220;-79
2021/06/20 05:51:31;;;;;;;10.93;6.57;;;;;;;-144.99;100.00;52158.66;5101610;28;20316;-78
2021/06/20 05:53:58;;;;;;;8.90;5.23;;;;;;;-144.99;100.00;52166.81;5090183;28;20241;-79
2021/06/20 05:56:25;;;;;;;7.50;5.93;;;;;;;-144.99;100.00;52205.53;5105053;28;20312;-80
2021/06/20 05:58:53;;;;;;;9.60;7.03;;;;;;;-144.99;100.00;52195.34;5112037;28;20261;-79
2021/06/20 06:01:20;;;;;;;5.73;4.57;;;;;;;-144.99;100.00;52130.13;5107977;28;20233;-78
2021/06/20 06:03:47;;;;;;;6.80;4.93;;;;;;;-144.99;100.00;52158.66;5103425;28;20267;-81
2021/06/20 06:06:14;;;;;;;10.87;5.37;;;;;;;-144.99;100.00;52207.59;5108621;28;20216;-79
2021/06/20 06:08:40;;;;;;;15.53;7.80;;;;;;;-144.99;100.00;52146.44;5105251;28;20235;-80
2021/06/20 06:11:07;;;;;;;11.43;5.70;;;;;;;-144.99;100.00;52162.75;5104531;28;20282;-78
2021/06/20 06:13:34;;;;;;;8.40;5.43;;;;;;;-144.99;100.00;52168.84;5107517;28;20251;-79
2021/06/20 06:16:02;;;;;;;11.37;5.53;;;;;;;-144.99;100.00;52146.44;5102149;28;20266;-79
2021/06/20 06:18:30;;;;;;;8.37;5.40;;;;;;;-144.99;100.00;52187.19;5098988;28;20253;-79
2021/06/20 06:20:56;;;;;;;8.87;4.57;;;;;;;-144.99;100.00;52170.91;5091878;28;20234;-79
2021/06/20 06:23:26;;;;;;;5.60;3.73;;;;;;;-144.99;100.00;52197.41;5088881;28;20294;-80
2021/06/20 06:25:53;;;;;;;7.83;4.67;;;;;;;-144.99;100.00;52197.41;5103548;28;20245;-78
2021/06/20 06:28:20;;;;;;;5.00;3.37;;;;;;;-144.99;100.00;52174.97;5104573;28;20217;-78
2021/06/20 06:30:46;;;;;;;11.43;4.40;;;;;;;-144.99;100.00;52166.81;5097115;28;20323;-78
2021/06/20 06:33:15;;;;;;;9.10;3.37;;;;;;;-144.99;100.00;52199.44;5101433;28;20286;-78
2021/06/20 06:35:41;;;;;;;6.93;3.83;;;;;;;-144.99;100.00;52191.28;5098251;28;20215;-76
2021/06/20 06:38:11;;;;;;;5.33;3.57;;;;;;;-144.99;100.00;52166.81;5098442;28;20312;-77
2021/06/20 06:40:38;;;;;;;8.77;3.70;;;;;;;-144.99;100.00;52130.13;5099060;28;20236;-77
2021/06/20 06:43:06;;;;;;;10.70;4.10;;;;;;;-144.99;100.00;52174.97;5098907;28;20652;-78
2021/06/20 06:45:32;;;;;;;8.90;3.43;;;;;;;-144.99;100.00;52215.75;5099129;28;20591;-78
2021/06/20 06:47:59;;;;;;;4.40;3.03;;;;;;;-144.99;100.00;52160.72;5098830;28;20243;-78
2021/06/20 06:50:28;;;;;;;10.10;3.03;;;;;;;-144.99;100.00;52111.78;5095759;28;20277;-77
2021/06/20 06:52:58;;;;;;;8.07;3.17;;;;;;;-144.99;100.00;52150.53;5088121;28;20288;-76
2021/06/20 06:55:25;;;;;;;11.37;5.50;;;;;;;-144.99;100.00;52164.78;5077832;28;20677;-78
2021/06/20 06:57:52;;;;;;;8.30;2.50;;;;;;;-144.99;100.00;52183.13;5095817;28;20222;-78
2021/06/20 07:00:20;;;;;;;8.73;4.23;;;;;;;-144.99;100.00;52158.66;5094456;28;20479;-77
2021/06/20 07:02:47;;;;;;;5.73;4.00;;;;;;;-144.99;100.00;52146.44;5098328;28;20581;-78
2021/06/20 07:05:14;;;;;;;5.30;3.03;;;;;;;-144.99;100.00;52146.44;5098397;28;20294;-80
2021/06/20 07:07:42;;;;;;;4.37;3.33;;;;;;;-144.99;100.00;52166.81;5097998;28;20211;-78
2021/06/20 07:10:10;;;;;;;5.53;3.00;;;;;;;-144.99;100.00;52154.59;5101781;28;20243;-77
2021/06/20 07:12:39;;;;;;;7.47;3.80;;;;;;;-144.99;100.00;52138.28;5111277;28;20207;-82
2021/06/20 07:15:07;;;;;;;5.63;2.93;;;;;;;-144.99;99.55;52138.28;5114380;28;20208;-83
2021/06/20 07:17:38;;;;;;;5.20;3.20;;;;;;;-144.99;98.98;52152.56;5112244;28;20224;-81
2021/06/20 07:20:09;;;;;;;5.40;2.60;;;;;;;-144.99;98.64;52130.13;5109018;28;20334;-80
2021/06/20 07:22:40;;;;;;;7.17;3.33;;;;;;;-144.99;98.25;52126.06;5090174;28;20518;-82
2021/06/20 07:25:10;;;;;;;11.20;2.77;;;;;;;-144.99;98.43;52121.97;5101049;28;20207;-82
2021/06/20 07:27:37;;;;;;;8.77;4.00;;;;;;;-144.99;98.73;52111.78;5111459;28;20223;-79
2021/06/20 07:30:07;;;;;;;5.73;2.60;;;;;;;-144.99;97.64;52134.22;5106963;28;20262;-80
2021/06/20 07:32:34;;;;;;;6.70;3.20;;;;;;;-144.99;96.92;52138.28;5109428;28;20211;-81
2021/06/20 07:35:01;;;;;;;7.90;3.63;;;;;;;-144.99;96.19;52109.75;5108425;28;20204;-81
2021/06/20 07:37:28;;;;;;;4.17;2.37;;;;;;;-144.99;96.07;52117.91;5106273;28;20211;-79
2021/06/20 07:39:55;;;;;;;5.27;3.23;;;;;;;-144.99;95.67;52105.69;5106491;28;20250;-80
2021/06/20 07:42:24;;;;;;;9.10;2.77;;;;;;;-144.99;94.67;52117.91;5111405;28;20670;-79
2021/06/20 07:44:51;;;;;;;6.50;2.67;;;;;;;-144.99;93.99;52138.28;5110484;28;20271;-81
2021/06/20 07:47:19;;;;;;;7.90;2.93;;;;;;;-144.99;94.07;52077.16;5107158;28;20212;-79
2021/06/20 07:49:45;;;;;;;4.60;2.30;;;;;;;-144.99;92.10;52134.22;5099621;28;20236;-79
2021/06/20 07:52:12;;;;;;;5.77;2.20;;;;;;;-144.99;92.75;52124.03;5094842;28;20565;-79
2021/06/20 07:54:42;;;;;;;15.80;3.30;;;;;;;-144.99;92.98;52119.94;5093003;28;20973;-78
2021/06/20 07:57:09;;;;;;;9.43;4.17;;;;;;;-144.99;91.26;52170.91;5094744;28;20189;-78
2021/06/20 07:59:37;;;;;;;8.90;3.40;;;;;;;-144.99;91.81;52130.13;5093877;28;20320;-75
2021/06/20 08:02:07;;;;;;;11.67;3.17;;;;;;;-144.99;90.26;52126.06;5099930;28;20202;-81
2021/06/20 08:04:34;;;;;;;10.83;2.97;;;;;;;-144.99;89.47;52101.59;5105053;28;20223;-79
2021/06/20 08:07:01;;;;;;;7.20;4.57;;;;;;;-144.99;89.39;52085.31;5104678;28;20214;-80
2021/06/20 08:09:28;;;;;;;8.00;2.93;;;;;;;-144.99;88.25;52109.75;5105931;28;20246;-80
2021/06/20 08:11:55;;;;;;;7.13;3.70;;;;;;;-144.99;87.23;52109.75;5106160;28;20223;-81
2021/06/20 08:14:25;;;;;;;5.73;4.07;;;;;;;-144.99;87.74;52081.22;5106096;28;20249;-80
2021/06/20 08:16:54;;;;;;;7.17;3.90;;;;;;;-144.99;86.83;52117.91;5106368;28;20296;-79
2021/06/20 08:19:21;;;;;;;10.43;4.33;;;;;;;-144.99;87.26;52117.91;5105476;28;20238;-79
2021/06/20 08:21:48;;;;;;;9.23;4.83;;;;;;;-144.99;88.22;52158.66;5089260;28;20235;-82
2021/06/20 08:24:16;;;;;;;11.50;3.63;;;;;;;-144.99;89.03;52097.53;5102536;28;20213;-79
2021/06/20 08:26:45;;;;;;;9.97;5.00;;;;;;;-144.99;88.87;52109.75;5116450;28;20198;-81
2021/06/20 08:29:12;;;;;;;6.70;4.10;;;;;;;-144.99;89.39;52158.66;5117081;28;20210;-81
2021/06/20 08:31:39;;;;;;;10.57;5.30;;;;;;;-144.99;89.40;52117.91;5114939;28;20266;-80
2021/06/20 08:34:08;;;;;;;6.70;3.83;;;;;;;-144.99;89.36;52146.44;5105675;28;20214;-78
2021/06/20 08:36:35;;;;;;;8.23;3.63;;;;;;;-144.99;89.75;52124.03;5097809;28;20574;-78
2021/06/20 08:39:03;;;;;;;7.97;3.17;;;;;;;-144.99;90.30;52146.44;5098306;28;20301;-81
2021/06/20 08:41:32;;;;;;;7.80;2.73;;;;;;;-144.99;90.02;52113.84;5099397;28;20701;-80
2021/06/20 08:43:59;;;;;;;7.63;3.70;;;;;;;-144.99;88.99;52121.97;5096552;28;20297;-80
2021/06/20 08:46:25;;;;;;;12.73;4.70;;;;;;;-144.99;88.11;52121.97;5096585;28;20301;-79
2021/06/20 08:48:53;;;;;;;7.87;5.17;;;;;;;-144.99;87.15;52115.88;5101670;28;20294;-79
2021/06/20 08:51:21;;;;;;;12.37;4.70;;;;;;;-144.99;86.54;52097.53;5088337;28;20636;-80
2021/06/20 08:53:50;;;;;;;8.90;3.57;;;;;;;-144.99;85.93;52099.56;5089979;28;20204;-80
2021/06/20 08:56:16;;;;;;;7.53;5.03;;;;;;;-144.99;84.60;52107.72;5087203;28;20730;-80
2021/06/20 08:58:43;;;;;;;6.00;3.23;;;;;;;-144.99;83.02;52095.50;5094162;28;20237;-79
2021/06/20 09:01:10;;;;;;;12.43;5.37;;;;;;;-144.99;80.78;52073.06;5088403;28;20295;-79
2021/06/20 09:03:39;;;;;;;7.47;4.27;;;;;;;-144.99;80.01;52105.69;5095038;28;20210;-81
2021/06/20 09:06:14;;;;;;;14.13;5.77;;;;;;;-144.99;80.75;52117.91;5098024;28;20218;-81
2021/06/20 09:08:46;;;;;;;11.03;4.70;;;;;;;-144.99;80.75;52126.06;5092766;28;20268;-81
2021/06/20 09:11:23;;;;;;;8.00;4.63;;;;;;;-144.99;80.25;52099.56;5088980;28;20235;-78
2021/06/20 09:13:50;;;;;;;9.43;4.77;;;;;;;-144.99;82.04;52105.69;5096867;28;20203;-79
2021/06/20 09:16:20;;;;;;;6.60;4.87;;;;;;;-144.99;82.33;52085.31;5100219;28;20216;-80
2021/06/20 09:18:51;;;;;;;7.67;4.77;;;;;;;-144.99;82.41;52105.69;5095331;28;20203;-78
2021/06/20 09:21:17;;;;;;;14.10;5.67;;;;;;;-144.99;82.41;52119.94;5093814;28;20242;-80
2021/06/20 09:23:45;;;;;;;11.93;5.27;;;;;;;-144.99;83.57;52117.91;5096531;28;20206;-80
2021/06/20 09:26:13;;;;;;;7.50;5.37;;;;;;;-144.99;83.09;52126.06;5093078;28;20741;-80
2021/06/20 09:28:40;;;;;;;6.77;4.07;;;;;;;-144.99;84.29;52105.69;5093683;28;20303;-81
2021/06/20 09:31:07;;;;;;;7.57;4.67;;;;;;;-144.99;84.47;52126.06;5092052;28;20288;-79
2021/06/20 09:33:36;;;;;;;10.73;5.97;;;;;;;-144.99;83.96;52162.75;5094327;28;20588;-77
2021/06/20 09:36:04;;;;;;;12.13;5.97;;;;;;;-144.99;84.34;52154.59;5089197;28;20210;-79
2021/06/20 09:38:32;;;;;;;14.73;4.87;;;;;;;-144.99;84.86;52126.06;5094098;28;20264;-78
2021/06/20 09:41:06;;;;;;;12.83;5.47;;;;;;;-144.99;83.95;52081.22;5093092;28;20317;-78
2021/06/20 09:43:34;;;;;;;8.87;6.27;;;;;;;-144.99;83.43;52128.09;5092945;28;20637;-80
2021/06/20 09:46:01;;;;;;;10.00;5.60;;;;;;;-144.99;81.52;52093.44;5092592;28;20211;-80
2021/06/20 09:48:30;;;;;;;8.03;5.57;;;;;;;-144.99;79.89;52064.91;5092508;28;20830;-80
2021/06/20 09:50:58;;;;;;;7.80;5.73;;;;;;;-144.99;79.33;52048.63;5092775;28;20231;-81
2021/06/20 09:53:33;;;;;;;12.83;6.40;;;;;;;-144.99;79.07;52107.72;5077663;28;20227;-79
2021/06/20 09:56:12;;;;;;;12.27;6.17;;;;;;;-144.99;77.58;52101.59;5083819;28;20208;-82
2021/06/20 09:58:43;;;;;;;8.00;6.13;;;;;;;-144.99;75.78;52052.69;5099392;28;20203;-84
2021/06/20 10:01:11;;;;;;;11.20;7.03;;;;;;;-144.99;75.64;51987.47;5101005;28;20259;-80
2021/06/20 10:03:38;;;;;;;8.23;5.97;;;;;;;-144.99;75.29;52060.84;5097386;28;20208;-83
2021/06/20 10:06:05;;;;;;;10.43;6.03;;;;;;;-144.99;73.54;52073.06;5088551;28;20204;-78
2021/06/20 10:08:33;;;;;;;9.07;7.53;;;;;;;-144.99;72.12;52040.47;5087963;28;20201;-81
2021/06/20 10:11:00;;;;;;;8.10;6.57;;;;;;;-144.99;72.76;52142.38;5088074;28;20228;-82
2021/06/20 10:13:32;;;;;;;13.87;7.07;;;;;;;-144.99;72.37;52069.00;5097607;28;20209;-81
2021/06/20 10:16:16;;;;;;;8.33;6.60;;;;;;;-144.99;72.21;52064.91;5107594;28;20261;-83
2021/06/20 10:18:55;;;;;;;14.00;7.43;;;;;;;-144.99;72.65;52064.91;5109188;28;20218;-85
2021/06/20 10:21:34;;;;;;;10.10;6.67;;;;;;;-144.99;72.24;52101.59;5104818;28;20224;-80
2021/06/20 10:24:13;;;;;;;12.20;7.73;;;;;;;-144.99;72.53;52069.00;5105980;28;20194;-84
2021/06/20 10:26:44;;;;;;;11.43;6.57;;;;;;;-144.99;73.17;52044.53;5108323;28;20199;-85
2021/06/20 10:29:20;;;;;;;10.33;8.33;;;;;;;-144.99;71.84;52069.00;5106945;28;20208;-84
2021/06/20 10:31:48;;;;;;;8.57;6.60;;;;;;;-144.99;72.38;52085.31;5100227;28;20217;-78
2021/06/20 10:34:21;;;;;;;10.80;6.70;;;;;;;-144.99;70.12;51999.69;5088067;28;20579;-82
2021/06/20 10:36:50;;;;;;;7.73;6.13;;;;;;;-144.99;69.36;52040.47;5083693;28;20293;-82
2021/06/20 10:39:17;;;;;;;15.40;8.80;;;;;;;-144.99;68.61;51971.16;5083853;28;20257;-80
2021/06/20 10:41:44;;;;;;;8.83;6.67;;;;;;;-144.99;67.17;52042.50;5088401;28;20292;-79
2021/06/20 10:44:11;;;;;;;9.90;7.20;;;;;;;-144.99;65.74;52052.69;5090491;28;20232;-79
2021/06/20 10:46:41;;;;;;;9.47;7.70;;;;;;;-144.99;66.09;51987.47;5094065;28;20231;-80
2021/06/20 10:49:20;;;;;;;10.73;7.47;;;;;;;-144.99;64.66;52024.16;5090467;28;20268;-79
2021/06/20 10:51:47;;;;;;;13.60;7.17;;;;;;;-144.99;65.00;52069.00;5086895;28;20202;-79
2021/06/20 10:54:25;;;;;;;8.87;7.20;;;;;;;-144.99;63.44;52020.09;5088335;28;20615;-85
2021/06/20 10:57:00;;;;;;;11.33;7.87;;;;;;;-144.99;63.17;52020.09;5090063;28;20661;-80
2021/06/20 10:59:27;;;;;;;7.67;6.73;;;;;;;-144.99;62.88;51969.13;5086060;28;21999;-79
2021/06/20 11:01:56;;;;;;;8.57;6.97;;;;;;;-144.99;61.93;52062.88;5092002;28;20212;-82
2021/06/20 11:04:22;;;;;;;9.40;7.17;;;;;;;-144.99;62.15;52032.31;5094992;28;20219;-81
2021/06/20 11:06:53;;;;;;;11.40;7.93;;;;;;;-144.99;62.02;52056.78;5098707;28;20211;-82
2021/06/20 11:09:22;;;;;;;7.10;6.40;;;;;;;-144.99;62.00;52069.00;5100391;28;20551;-84
2021/06/20 11:11:51;;;;;;;13.17;8.67;;;;;;;-144.99;62.77;52020.09;5087857;28;20300;-83